Orion Explorer — LNDT — position and weather

sailwx.info

Track history (hours):
 
Tides and Currents Weather Stations Pressure Air Temp Water Temp Dewpoint Dewpoint Depression Visibility Wind Speed Wind Dir Waves Ship Positions

Orion Explorer

Last reported at 2014-Nov-23 10:22 UTC. Time now 2014-Nov-26 00:20 UTC.
Position N 69°35' E 018°51'.

Length 59 m; draft 4.5 m.

Type: Cargo ship. MMSI: 259496000.

Date/timePositionNaut miles runAvg speedWind from/ knotsBaromVisibWave heightAir tempDewpointWater temp
2014-Nov-23 10:22N 69°35' E 018°51'8 9.5
2014-Nov-23 09:33N 69°42' E 019°02'94 7.2
2014-Nov-22 20:33N 70°31' E 022°58'1211.6
2014-Nov-22 19:33N 70°38' E 023°26'6 6.3
2014-Nov-22 18:33N 70°32' E 023°33'4 3.9
2014-Nov-22 17:33N 70°36' E 023°35'8 8.0
2014-Nov-22 16:33N 70°34' E 023°12'2 2.2
2014-Nov-22 15:33N 70°32' E 023°14'0 0.0
2014-Nov-22 14:34N 70°32' E 023°14'7 6.7
2014-Nov-22 13:34N 70°31' E 022°54'  
2014-Nov-19 22:34N 69°37' E 018°54'4 0.3
2014-Nov-19 08:33N 69°39' E 018°59'  
2014-Nov-16 03:33N 69°38' E 018°58'101 6.3
2014-Nov-15 11:33N 70°34' E 023°06'1010.1
2014-Nov-15 10:33N 70°37' E 023°35'5 4.7
2014-Nov-15 09:30N 70°32' E 023°33'4 4.7
2014-Nov-15 08:34N 70°37' E 023°36'8 8.2
2014-Nov-15 07:32N 70°32' E 023°14'1 0.5
2014-Nov-15 06:21N 70°32' E 023°14'4 4.6
2014-Nov-15 05:33N 70°32' E 023°03'1211.1
2014-Nov-15 04:29N 70°28' E 022°29'  
Track history (hours):
 
Tides and Currents Weather Stations Pressure Air Temp Water Temp Dewpoint Dewpoint Depression Visibility Wind Speed Wind Dir Waves Ship Positions

Orion Explorer

Last reported at 2014-Nov-23 10:22 UTC. Time now 2014-Nov-26 00:20 UTC.
Position N 69°35' E 018°51'.

Length 59 m; draft 4.5 m.

Type: Cargo ship. MMSI: 259496000.

Date/timePositionNaut miles runAvg speedWind from/ knotsBaromVisibWave heightAir tempDewpointWater temp
2014-Nov-23 10:22N 69°35' E 018°51'8 9.5
2014-Nov-23 09:33N 69°42' E 019°02'94 7.2
2014-Nov-22 20:33N 70°31' E 022°58'1211.6
2014-Nov-22 19:33N 70°38' E 023°26'6 6.3
2014-Nov-22 18:33N 70°32' E 023°33'4 3.9
2014-Nov-22 17:33N 70°36' E 023°35'8 8.0
2014-Nov-22 16:33N 70°34' E 023°12'2 2.2
2014-Nov-22 15:33N 70°32' E 023°14'0 0.0
2014-Nov-22 14:34N 70°32' E 023°14'7 6.7
2014-Nov-22 13:34N 70°31' E 022°54'  
2014-Nov-19 22:34N 69°37' E 018°54'4 0.3
2014-Nov-19 08:33N 69°39' E 018°59'  
2014-Nov-16 03:33N 69°38' E 018°58'101 6.3
2014-Nov-15 11:33N 70°34' E 023°06'1010.1
2014-Nov-15 10:33N 70°37' E 023°35'5 4.7
2014-Nov-15 09:30N 70°32' E 023°33'4 4.7
2014-Nov-15 08:34N 70°37' E 023°36'8 8.2
2014-Nov-15 07:32N 70°32' E 023°14'1 0.5
2014-Nov-15 06:21N 70°32' E 023°14'4 4.6
2014-Nov-15 05:33N 70°32' E 023°03'1211.1
2014-Nov-15 04:29N 70°28' E 022°29'  

Dump ship's entire track history